CheckWX is a tool to help pilots better visualize weather data.  It is not intended as a substitute for an official pre-flight weather briefing.

02:12:04 UTC

EKRN METAR
Bornholm Airport
Rønne, Denmark
Current

22 mins ago

EKRN 180150Z AUTO 12007KT 1100 R11/P1500U R29/P1500N BR NCD 03/02 Q1021
Observed
Feb-18 @ 01:50 UTC
Wind
  • 120° at 7 KTS
Visibility
1,094 meters
Flight Rules
LIFR
Conditions
Mist
Cloud Levels
  • Clear skies
Temperature
C / 37°F
Dewpoint
C / 36°F
Humidity
93%
Altimeter
30.15" Hg
Pressure
1020.92 hPa
Previous

52 mins ago

EKRN 180120Z AUTO 11005KT 0650 R11/0750U R29/P1500N FG NCD 03/03 Q1021
Observed
Feb-18 @ 01:20 UTC
Wind
  • 110° at 5 KTS
Visibility
644 meters
Flight Rules
LIFR
Conditions
Fog
Cloud Levels
  • Clear skies
Temperature
C / 37°F
Dewpoint
C / 37°F
Humidity
100%
Altimeter
30.15" Hg
Pressure
1020.92 hPa
Previous

1 hour ago

EKRN 180050Z AUTO 10005KT 0900 R11/P1500N R29/P1500N BCFG FEW006/// 03/03 Q1022
Observed
Feb-18 @ 00:50 UTC
Wind
  • 100° at 5 KTS
Visibility
901 meters
Flight Rules
LIFR
Conditions
Patches of Fog
Cloud Levels
  • Few at 600' AGL
Temperature
C / 37°F
Dewpoint
C / 37°F
Humidity
100%
Altimeter
30.18" Hg
Pressure
1021.92 hPa